Magazine, Arkansas
Current Conditions -  °F | °C
As of 11:53 AM on Friday 28 Nov 2014 (Local Time) from KFSM Reporting Station
Clear Clear  
Wind Chill: 56°   Ceiling: Unl
Heat Index: 56°   Visibility: 10mi
Dew Point: 35°   Wind: 9mph
Humidity: 45%   Direction: 40°NE
Pressure: 30.15"   Gusts: NA
Location:  35.15°N, 93.81°W
Report Text: KFSM 281753Z 04008KT 10SM CLR 13/02 A3015 RMK AO2 SLP210 T01330017 10133 21006 58035
Loading
Personal Weather Stations






























Interactive Weather Map New forecast layout! Learn more

10-Day Weather Forecast

Advertisements
Track Severe Weather on mobile